sensor_id;sensor_type;location;lat;lon;timestamp;P1;P2;P0
42002;PMS7003;27693;50.506;30.832;2022-09-13T00:00:38;16.30;12.60;8.70
42002;PMS7003;27693;50.506;30.832;2022-09-13T00:01:41;15.20;12.40;10.10
42002;PMS7003;27693;50.506;30.832;2022-09-13T00:02:43;17.10;14.00;10.70
42002;PMS7003;27693;50.506;30.832;2022-09-13T00:03:46;16.09;14.27;9.82
42002;PMS7003;27693;50.506;30.832;2022-09-13T00:04:48;12.89;11.89;8.22
42002;PMS7003;27693;50.506;30.832;2022-09-13T00:05:50;13.22;11.44;8.11
42002;PMS7003;27693;50.506;30.832;2022-09-13T00:06:52;13.90;11.80;9.10
42002;PMS7003;27693;50.506;30.832;2022-09-13T00:07:54;12.89;12.89;10.11
42002;PMS7003;27693;50.506;30.832;2022-09-13T00:08:57;12.55;12.36;8.82
42002;PMS7003;27693;50.506;30.832;2022-09-13T00:09:59;15.56;11.89;9.78
42002;PMS7003;27693;50.506;30.832;2022-09-13T00:11:01;18.20;13.80;9.50
42002;PMS7003;27693;50.506;30.832;2022-09-13T00:12:03;12.00;11.10;7.90
42002;PMS7003;27693;50.506;30.832;2022-09-13T00:13:06;13.80;12.60;9.70
42002;PMS7003;27693;50.506;30.832;2022-09-13T00:14:08;11.70;10.10;7.40
42002;PMS7003;27693;50.506;30.832;2022-09-13T00:15:10;17.40;14.50;10.60
42002;PMS7003;27693;50.506;30.832;2022-09-13T00:16:15;12.70;11.40;8.40
42002;PMS7003;27693;50.506;30.832;2022-09-13T00:17:19;16.90;13.30;10.30
42002;PMS7003;27693;50.506;30.832;2022-09-13T00:18:20;14.33;13.00;9.44
42002;PMS7003;27693;50.506;30.832;2022-09-13T00:19:23;15.00;13.20;9.50
42002;PMS7003;27693;50.506;30.832;2022-09-13T00:20:25;6.10;5.70;4.30
42002;PMS7003;27693;50.506;30.832;2022-09-13T00:21:27;14.80;12.90;9.90
42002;PMS7003;27693;50.506;30.832;2022-09-13T00:22:30;13.30;12.90;10.40
42002;PMS7003;27693;50.506;30.832;2022-09-13T00:23:32;13.40;12.20;9.40
42002;PMS7003;27693;50.506;30.832;2022-09-13T00:24:34;17.40;14.30;9.90
42002;PMS7003;27693;50.506;30.832;2022-09-13T00:25:36;16.33;12.56;9.33
42002;PMS7003;27693;50.506;30.832;2022-09-13T00:26:39;16.36;13.09;9.45
42002;PMS7003;27693;50.506;30.832;2022-09-13T00:27:41;16.30;11.90;8.70
42002;PMS7003;27693;50.506;30.832;2022-09-13T00:28:44;14.10;11.70;9.40
42002;PMS7003;27693;50.506;30.832;2022-09-13T00:29:48;14.70;13.10;9.40
42002;PMS7003;27693;50.506;30.832;2022-09-13T00:30:49;14.40;12.00;8.90
42002;PMS7003;27693;50.506;30.832;2022-09-13T00:31:51;13.00;10.67;7.33
42002;PMS7003;27693;50.506;30.832;2022-09-13T00:32:54;12.30;11.40;9.00
42002;PMS7003;27693;50.506;30.832;2022-09-13T00:35:08;13.50;12.40;9.90
42002;PMS7003;27693;50.506;30.832;2022-09-13T00:36:11;10.60;8.50;7.40
42002;PMS7003;27693;50.506;30.832;2022-09-13T00:38:23;10.50;9.90;6.00
42002;PMS7003;27693;50.506;30.832;2022-09-13T00:39:25;15.30;13.70;9.90
42002;PMS7003;27693;50.506;30.832;2022-09-13T00:40:30;14.40;12.80;9.80
42002;PMS7003;27693;50.506;30.832;2022-09-13T00:41:36;13.90;11.10;8.90
42002;PMS7003;27693;50.506;30.832;2022-09-13T00:42:38;14.80;13.00;9.30
42002;PMS7003;27693;50.506;30.832;2022-09-13T00:43:41;13.78;13.78;9.67
42002;PMS7003;27693;50.506;30.832;2022-09-13T00:45:55;15.30;13.70;9.60
42002;PMS7003;27693;50.506;30.832;2022-09-13T00:46:57;12.80;11.60;9.50
42002;PMS7003;27693;50.506;30.832;2022-09-13T00:48:00;13.40;12.60;10.30
42002;PMS7003;27693;50.506;30.832;2022-09-13T00:50:28;12.90;12.90;9.50
42002;PMS7003;27693;50.506;30.832;2022-09-13T00:51:41;17.40;12.80;9.80
42002;PMS7003;27693;50.506;30.832;2022-09-13T00:52:57;15.10;12.20;9.50
42002;PMS7003;27693;50.506;30.832;2022-09-13T00:54:15;14.80;12.00;9.70
42002;PMS7003;27693;50.506;30.832;2022-09-13T00:55:31;14.50;12.30;9.20
42002;PMS7003;27693;50.506;30.832;2022-09-13T00:56:46;13.90;12.00;9.80
42002;PMS7003;27693;50.506;30.832;2022-09-13T00:57:54;15.20;11.40;8.90
42002;PMS7003;27693;50.506;30.832;2022-09-13T00:59:12;13.60;12.30;9.30
42002;PMS7003;27693;50.506;30.832;2022-09-13T01:00:19;12.60;12.20;8.50
42002;PMS7003;27693;50.506;30.832;2022-09-13T01:01:22;16.36;15.00;11.00
42002;PMS7003;27693;50.506;30.832;2022-09-13T01:02:28;16.30;14.20;11.70
42002;PMS7003;27693;50.506;30.832;2022-09-13T01:03:31;17.90;14.50;10.80
42002;PMS7003;27693;50.506;30.832;2022-09-13T01:04:35;16.20;14.40;10.80
42002;PMS7003;27693;50.506;30.832;2022-09-13T01:05:40;17.70;13.70;10.30
42002;PMS7003;27693;50.506;30.832;2022-09-13T01:06:44;17.60;15.00;11.60
42002;PMS7003;27693;50.506;30.832;2022-09-13T01:07:48;18.50;15.90;11.60
42002;PMS7003;27693;50.506;30.832;2022-09-13T01:08:51;17.90;15.30;10.80
42002;PMS7003;27693;50.506;30.832;2022-09-13T01:09:54;15.90;14.40;10.40
42002;PMS7003;27693;50.506;30.832;2022-09-13T01:10:57;17.30;16.60;13.20
42002;PMS7003;27693;50.506;30.832;2022-09-13T01:12:02;20.10;14.30;10.70
42002;PMS7003;27693;50.506;30.832;2022-09-13T01:13:12;19.70;16.10;12.30
42002;PMS7003;27693;50.506;30.832;2022-09-13T01:14:16;16.90;15.60;12.50
42002;PMS7003;27693;50.506;30.832;2022-09-13T01:15:20;19.20;16.80;12.70
42002;PMS7003;27693;50.506;30.832;2022-09-13T01:16:23;17.91;15.64;12.00
42002;PMS7003;27693;50.506;30.832;2022-09-13T01:17:27;15.10;14.40;12.00
42002;PMS7003;27693;50.506;30.832;2022-09-13T01:18:30;20.50;17.60;12.70
42002;PMS7003;27693;50.506;30.832;2022-09-13T01:19:32;19.10;16.80;14.50
42002;PMS7003;27693;50.506;30.832;2022-09-13T01:20:44;17.60;15.70;11.10
42002;PMS7003;27693;50.506;30.832;2022-09-13T01:24:55;15.60;14.50;12.70
42002;PMS7003;27693;50.506;30.832;2022-09-13T01:27:52;18.80;16.10;12.60
42002;PMS7003;27693;50.506;30.832;2022-09-13T01:30:24;19.50;15.60;12.60
42002;PMS7003;27693;50.506;30.832;2022-09-13T01:34:29;20.30;17.90;12.70
42002;PMS7003;27693;50.506;30.832;2022-09-13T01:41:20;23.10;20.20;14.70
42002;PMS7003;27693;50.506;30.832;2022-09-13T01:45:21;20.20;16.60;12.60
42002;PMS7003;27693;50.506;30.832;2022-09-13T01:46:47;20.00;17.50;13.80
42002;PMS7003;27693;50.506;30.832;2022-09-13T01:50:28;22.00;19.20;15.10
42002;PMS7003;27693;50.506;30.832;2022-09-13T01:51:46;20.00;17.50;13.20
42002;PMS7003;27693;50.506;30.832;2022-09-13T01:56:50;19.90;18.90;13.90
42002;PMS7003;27693;50.506;30.832;2022-09-13T01:59:13;20.60;19.70;13.70
42002;PMS7003;27693;50.506;30.832;2022-09-13T02:00:26;19.50;18.40;14.50
42002;PMS7003;27693;50.506;30.832;2022-09-13T02:01:48;21.60;19.00;14.50
42002;PMS7003;27693;50.506;30.832;2022-09-13T02:02:51;20.80;18.50;14.60
42002;PMS7003;27693;50.506;30.832;2022-09-13T02:04:02;21.10;20.20;15.20
42002;PMS7003;27693;50.506;30.832;2022-09-13T02:05:09;21.20;17.50;13.70
42002;PMS7003;27693;50.506;30.832;2022-09-13T02:06:14;19.40;13.60;10.80
42002;PMS7003;27693;50.506;30.832;2022-09-13T02:07:35;21.00;18.90;13.40
42002;PMS7003;27693;50.506;30.832;2022-09-13T02:10:02;22.30;19.20;14.40
42002;PMS7003;27693;50.506;30.832;2022-09-13T02:11:10;18.80;17.20;13.60
42002;PMS7003;27693;50.506;30.832;2022-09-13T02:12:19;17.60;17.00;12.80
42002;PMS7003;27693;50.506;30.832;2022-09-13T02:13:26;23.70;21.30;15.20
42002;PMS7003;27693;50.506;30.832;2022-09-13T02:14:36;20.00;18.50;15.00
42002;PMS7003;27693;50.506;30.832;2022-09-13T02:15:38;22.10;18.60;14.10
42002;PMS7003;27693;50.506;30.832;2022-09-13T02:18:00;22.20;18.70;13.30
42002;PMS7003;27693;50.506;30.832;2022-09-13T02:19:16;21.10;19.40;15.30
42002;PMS7003;27693;50.506;30.832;2022-09-13T02:20:35;21.70;20.00;15.40
42002;PMS7003;27693;50.506;30.832;2022-09-13T02:21:42;23.50;20.90;14.50
42002;PMS7003;27693;50.506;30.832;2022-09-13T02:22:47;21.70;19.40;15.80
42002;PMS7003;27693;50.506;30.832;2022-09-13T02:24:01;21.10;18.50;14.20
42002;PMS7003;27693;50.506;30.832;2022-09-13T02:25:11;20.90;19.50;14.90
42002;PMS7003;27693;50.506;30.832;2022-09-13T02:26:13;21.20;17.70;12.50
42002;PMS7003;27693;50.506;30.832;2022-09-13T02:27:19;22.10;17.90;13.30
42002;PMS7003;27693;50.506;30.832;2022-09-13T02:28:27;18.30;18.30;13.80
42002;PMS7003;27693;50.506;30.832;2022-09-13T02:29:34;22.50;18.80;13.30
42002;PMS7003;27693;50.506;30.832;2022-09-13T02:30:39;20.70;18.40;13.70
42002;PMS7003;27693;50.506;30.832;2022-09-13T02:31:47;22.00;20.20;16.40
42002;PMS7003;27693;50.506;30.832;2022-09-13T02:32:56;23.10;19.10;14.90
42002;PMS7003;27693;50.506;30.832;2022-09-13T02:34:02;21.70;18.10;15.00
42002;PMS7003;27693;50.506;30.832;2022-09-13T02:35:09;21.50;19.60;14.50
42002;PMS7003;27693;50.506;30.832;2022-09-13T02:36:16;25.80;21.10;15.50
42002;PMS7003;27693;50.506;30.832;2022-09-13T02:37:23;21.80;20.10;15.60
42002;PMS7003;27693;50.506;30.832;2022-09-13T02:38:30;17.60;17.20;14.30
42002;PMS7003;27693;50.506;30.832;2022-09-13T02:39:52;17.60;17.60;14.00
42002;PMS7003;27693;50.506;30.832;2022-09-13T02:40:58;15.80;15.10;13.20
42002;PMS7003;27693;50.506;30.832;2022-09-13T02:43:13;20.40;17.60;12.90
42002;PMS7003;27693;50.506;30.832;2022-09-13T02:45:41;17.60;15.70;13.20
42002;PMS7003;27693;50.506;30.832;2022-09-13T02:46:55;17.80;16.40;12.30
42002;PMS7003;27693;50.506;30.832;2022-09-13T02:48:26;17.30;15.70;12.70
42002;PMS7003;27693;50.506;30.832;2022-09-13T02:53:28;19.50;16.30;13.10
42002;PMS7003;27693;50.506;30.832;2022-09-13T02:54:36;17.20;17.20;13.40
42002;PMS7003;27693;50.506;30.832;2022-09-13T02:55:48;16.40;15.40;12.30
42002;PMS7003;27693;50.506;30.832;2022-09-13T02:58:12;17.00;16.50;13.40
42002;PMS7003;27693;50.506;30.832;2022-09-13T02:59:18;18.90;16.00;13.30
42002;PMS7003;27693;50.506;30.832;2022-09-13T03:00:22;12.20;12.20;10.30
42002;PMS7003;27693;50.506;30.832;2022-09-13T03:01:25;16.09;15.18;12.09
42002;PMS7003;27693;50.506;30.832;2022-09-13T03:02:30;16.20;14.40;12.10
42002;PMS7003;27693;50.506;30.832;2022-09-13T03:03:34;16.40;15.10;12.50
42002;PMS7003;27693;50.506;30.832;2022-09-13T03:04:36;17.00;15.10;12.40
42002;PMS7003;27693;50.506;30.832;2022-09-13T03:05:38;15.90;15.00;12.10
42002;PMS7003;27693;50.506;30.832;2022-09-13T03:06:40;15.30;14.50;11.40
42002;PMS7003;27693;50.506;30.832;2022-09-13T03:07:42;15.50;15.20;12.20
42002;PMS7003;27693;50.506;30.832;2022-09-13T03:08:44;17.60;14.40;12.60
42002;PMS7003;27693;50.506;30.832;2022-09-13T03:09:52;16.70;14.80;11.70
42002;PMS7003;27693;50.506;30.832;2022-09-13T03:12:48;14.40;14.40;11.80
42002;PMS7003;27693;50.506;30.832;2022-09-13T03:14:12;18.70;15.70;11.40
42002;PMS7003;27693;50.506;30.832;2022-09-13T03:16:56;17.50;15.70;11.80
42002;PMS7003;27693;50.506;30.832;2022-09-13T03:20:29;14.30;13.30;10.70
42002;PMS7003;27693;50.506;30.832;2022-09-13T03:28:28;14.50;13.80;11.30
42002;PMS7003;27693;50.506;30.832;2022-09-13T03:29:46;19.50;17.20;13.80
42002;PMS7003;27693;50.506;30.832;2022-09-13T03:30:52;21.70;17.60;13.50
42002;PMS7003;27693;50.506;30.832;2022-09-13T03:32:00;19.30;17.40;13.90
42002;PMS7003;27693;50.506;30.832;2022-09-13T03:33:14;15.80;14.90;12.80
42002;PMS7003;27693;50.506;30.832;2022-09-13T03:34:21;18.90;16.00;13.90
42002;PMS7003;27693;50.506;30.832;2022-09-13T03:35:26;17.40;14.60;10.70
42002;PMS7003;27693;50.506;30.832;2022-09-13T03:36:35;16.60;14.20;10.90
42002;PMS7003;27693;50.506;30.832;2022-09-13T03:38:02;21.90;19.30;14.40
42002;PMS7003;27693;50.506;30.832;2022-09-13T03:38:54;19.60;17.30;13.30
42002;PMS7003;27693;50.506;30.832;2022-09-13T03:39:59;22.40;18.60;14.90
42002;PMS7003;27693;50.506;30.832;2022-09-13T03:41:16;19.20;18.10;13.70
42002;PMS7003;27693;50.506;30.832;2022-09-13T03:42:22;19.60;17.20;13.30
42002;PMS7003;27693;50.506;30.832;2022-09-13T03:43:28;22.20;19.50;13.20
42002;PMS7003;27693;50.506;30.832;2022-09-13T03:44:32;19.60;16.80;13.90
42002;PMS7003;27693;50.506;30.832;2022-09-13T03:45:48;22.30;18.40;14.70
42002;PMS7003;27693;50.506;30.832;2022-09-13T03:46:54;21.50;19.10;14.30
42002;PMS7003;27693;50.506;30.832;2022-09-13T03:47:59;21.60;19.70;14.40
42002;PMS7003;27693;50.506;30.832;2022-09-13T03:49:05;20.60;18.60;13.70
42002;PMS7003;27693;50.506;30.832;2022-09-13T03:50:09;21.50;17.40;13.60
42002;PMS7003;27693;50.506;30.832;2022-09-13T03:51:15;22.40;18.80;14.40
42002;PMS7003;27693;50.506;30.832;2022-09-13T03:52:17;19.80;18.40;14.70
42002;PMS7003;27693;50.506;30.832;2022-09-13T03:53:21;23.45;21.09;16.27
42002;PMS7003;27693;50.506;30.832;2022-09-13T03:54:29;24.50;20.30;16.00
42002;PMS7003;27693;50.506;30.832;2022-09-13T03:55:33;20.50;17.40;14.00
42002;PMS7003;27693;50.506;30.832;2022-09-13T03:56:39;20.00;17.00;13.20
42002;PMS7003;27693;50.506;30.832;2022-09-13T03:57:40;20.70;18.80;14.70
42002;PMS7003;27693;50.506;30.832;2022-09-13T03:58:43;17.70;13.90;11.60
42002;PMS7003;27693;50.506;30.832;2022-09-13T03:59:48;24.70;21.80;15.40
42002;PMS7003;27693;50.506;30.832;2022-09-13T04:00:55;23.00;19.90;16.00
42002;PMS7003;27693;50.506;30.832;2022-09-13T04:01:57;22.40;19.40;14.40
42002;PMS7003;27693;50.506;30.832;2022-09-13T04:03:00;20.10;18.20;14.60
42002;PMS7003;27693;50.506;30.832;2022-09-13T04:04:02;23.11;20.67;16.44
42002;PMS7003;27693;50.506;30.832;2022-09-13T04:05:05;20.90;19.00;15.00
42002;PMS7003;27693;50.506;30.832;2022-09-13T04:06:07;20.70;16.40;13.00
42002;PMS7003;27693;50.506;30.832;2022-09-13T04:07:11;19.90;18.20;14.10
42002;PMS7003;27693;50.506;30.832;2022-09-13T04:08:15;17.40;17.10;12.60
42002;PMS7003;27693;50.506;30.832;2022-09-13T04:09:17;21.30;19.00;14.40
42002;PMS7003;27693;50.506;30.832;2022-09-13T04:10:21;21.70;19.80;14.80
42002;PMS7003;27693;50.506;30.832;2022-09-13T04:11:23;19.80;18.40;14.40
42002;PMS7003;27693;50.506;30.832;2022-09-13T04:12:26;22.20;18.90;15.40
42002;PMS7003;27693;50.506;30.832;2022-09-13T04:13:28;18.70;17.30;13.40
42002;PMS7003;27693;50.506;30.832;2022-09-13T04:14:30;18.44;16.44;13.11
42002;PMS7003;27693;50.506;30.832;2022-09-13T04:15:32;19.50;16.40;12.70
42002;PMS7003;27693;50.506;30.832;2022-09-13T04:16:34;18.90;16.10;13.60
42002;PMS7003;27693;50.506;30.832;2022-09-13T04:17:36;18.70;15.60;13.40
42002;PMS7003;27693;50.506;30.832;2022-09-13T04:18:38;20.70;18.40;14.20
42002;PMS7003;27693;50.506;30.832;2022-09-13T04:19:40;20.56;18.44;14.11
42002;PMS7003;27693;50.506;30.832;2022-09-13T04:20:52;19.80;18.00;13.80
42002;PMS7003;27693;50.506;30.832;2022-09-13T04:21:56;16.40;14.40;10.80
42002;PMS7003;27693;50.506;30.832;2022-09-13T04:22:58;21.60;18.30;13.60
42002;PMS7003;27693;50.506;30.832;2022-09-13T04:24:00;18.67;16.33;13.33
42002;PMS7003;27693;50.506;30.832;2022-09-13T04:25:03;20.90;16.90;13.00
42002;PMS7003;27693;50.506;30.832;2022-09-13T04:26:08;19.60;16.20;13.20
42002;PMS7003;27693;50.506;30.832;2022-09-13T04:27:11;22.60;17.80;13.30
42002;PMS7003;27693;50.506;30.832;2022-09-13T04:28:13;16.60;16.20;13.10
42002;PMS7003;27693;50.506;30.832;2022-09-13T04:29:19;21.20;20.30;14.90
42002;PMS7003;27693;50.506;30.832;2022-09-13T04:30:22;18.90;17.70;12.80
42002;PMS7003;27693;50.506;30.832;2022-09-13T04:31:24;16.60;14.60;11.50
42002;PMS7003;27693;50.506;30.832;2022-09-13T04:32:26;19.70;17.40;12.60
42002;PMS7003;27693;50.506;30.832;2022-09-13T04:33:31;16.30;15.40;11.30
42002;PMS7003;27693;50.506;30.832;2022-09-13T04:34:34;19.10;16.10;12.50
42002;PMS7003;27693;50.506;30.832;2022-09-13T04:35:36;15.70;15.30;11.90
42002;PMS7003;27693;50.506;30.832;2022-09-13T04:36:38;17.30;15.60;10.80
42002;PMS7003;27693;50.506;30.832;2022-09-13T04:37:42;15.90;14.70;11.30
42002;PMS7003;27693;50.506;30.832;2022-09-13T04:38:45;20.00;16.40;12.60
42002;PMS7003;27693;50.506;30.832;2022-09-13T04:39:47;20.60;17.00;12.20
42002;PMS7003;27693;50.506;30.832;2022-09-13T04:40:51;17.30;15.70;11.90
42002;PMS7003;27693;50.506;30.832;2022-09-13T04:41:56;21.70;19.00;15.00
42002;PMS7003;27693;50.506;30.832;2022-09-13T04:42:59;19.60;17.20;12.70
42002;PMS7003;27693;50.506;30.832;2022-09-13T04:44:02;22.50;18.10;13.90
42002;PMS7003;27693;50.506;30.832;2022-09-13T04:45:04;16.50;15.20;11.40
42002;PMS7003;27693;50.506;30.832;2022-09-13T04:46:07;23.30;20.10;15.30
42002;PMS7003;27693;50.506;30.832;2022-09-13T04:47:09;21.00;18.20;14.10
42002;PMS7003;27693;50.506;30.832;2022-09-13T04:48:12;19.30;17.10;12.20
42002;PMS7003;27693;50.506;30.832;2022-09-13T04:49:14;19.40;17.30;12.90
42002;PMS7003;27693;50.506;30.832;2022-09-13T04:50:19;18.70;17.60;13.30
42002;PMS7003;27693;50.506;30.832;2022-09-13T04:51:23;18.60;17.90;13.30
42002;PMS7003;27693;50.506;30.832;2022-09-13T04:52:25;20.50;17.50;13.30
42002;PMS7003;27693;50.506;30.832;2022-09-13T04:53:27;20.00;18.11;13.56
42002;PMS7003;27693;50.506;30.832;2022-09-13T04:54:29;16.20;15.10;12.60
42002;PMS7003;27693;50.506;30.832;2022-09-13T04:55:32;20.00;18.20;12.60
42002;PMS7003;27693;50.506;30.832;2022-09-13T04:56:33;22.33;17.56;13.67
42002;PMS7003;27693;50.506;30.832;2022-09-13T04:57:36;20.30;18.00;13.30
42002;PMS7003;27693;50.506;30.832;2022-09-13T04:58:39;19.70;15.40;11.80
42002;PMS7003;27693;50.506;30.832;2022-09-13T04:59:41;17.40;16.00;12.20
42002;PMS7003;27693;50.506;30.832;2022-09-13T05:00:44;21.09;18.36;13.09
42002;PMS7003;27693;50.506;30.832;2022-09-13T05:01:46;18.70;18.00;13.30
42002;PMS7003;27693;50.506;30.832;2022-09-13T05:02:49;17.90;13.90;8.30
42002;PMS7003;27693;50.506;30.832;2022-09-13T05:03:56;21.20;20.80;15.00
42002;PMS7003;27693;50.506;30.832;2022-09-13T05:04:58;21.30;17.20;12.20
42002;PMS7003;27693;50.506;30.832;2022-09-13T05:06:05;21.67;17.00;12.11
42002;PMS7003;27693;50.506;30.832;2022-09-13T05:07:05;18.20;15.50;11.70
42002;PMS7003;27693;50.506;30.832;2022-09-13T05:08:07;20.10;18.60;13.80
42002;PMS7003;27693;50.506;30.832;2022-09-13T05:09:11;20.30;18.90;13.70
42002;PMS7003;27693;50.506;30.832;2022-09-13T05:10:15;22.30;19.40;15.20
42002;PMS7003;27693;50.506;30.832;2022-09-13T05:11:20;22.80;20.60;15.00
42002;PMS7003;27693;50.506;30.832;2022-09-13T05:12:27;22.40;20.40;14.40
42002;PMS7003;27693;50.506;30.832;2022-09-13T05:13:28;21.56;20.11;14.56
42002;PMS7003;27693;50.506;30.832;2022-09-13T05:14:31;23.50;20.40;15.30
42002;PMS7003;27693;50.506;30.832;2022-09-13T05:15:34;24.20;20.20;14.20
42002;PMS7003;27693;50.506;30.832;2022-09-13T05:16:36;25.30;23.20;16.30
42002;PMS7003;27693;50.506;30.832;2022-09-13T05:17:38;26.60;21.50;14.60
42002;PMS7003;27693;50.506;30.832;2022-09-13T05:18:41;23.10;21.90;16.10
42002;PMS7003;27693;50.506;30.832;2022-09-13T05:19:45;26.00;20.50;14.80
42002;PMS7003;27693;50.506;30.832;2022-09-13T05:20:47;25.80;21.80;16.10
42002;PMS7003;27693;50.506;30.832;2022-09-13T05:21:49;24.67;20.89;15.78
42002;PMS7003;27693;50.506;30.832;2022-09-13T05:22:50;24.22;21.33;16.33
42002;PMS7003;27693;50.506;30.832;2022-09-13T05:23:53;22.00;18.40;12.90
42002;PMS7003;27693;50.506;30.832;2022-09-13T05:24:57;20.30;18.70;13.60
42002;PMS7003;27693;50.506;30.832;2022-09-13T05:26:00;20.78;18.00;12.44
42002;PMS7003;27693;50.506;30.832;2022-09-13T05:27:04;25.20;19.00;13.20
42002;PMS7003;27693;50.506;30.832;2022-09-13T05:28:06;24.70;18.30;13.50
42002;PMS7003;27693;50.506;30.832;2022-09-13T05:29:08;22.67;21.00;15.33
42002;PMS7003;27693;50.506;30.832;2022-09-13T05:30:12;30.30;23.80;16.60
42002;PMS7003;27693;50.506;30.832;2022-09-13T05:31:15;21.50;20.10;13.60
42002;PMS7003;27693;50.506;30.832;2022-09-13T05:32:19;28.20;22.50;15.50
42002;PMS7003;27693;50.506;30.832;2022-09-13T05:33:21;26.50;23.60;16.20
42002;PMS7003;27693;50.506;30.832;2022-09-13T05:34:24;24.40;22.00;16.20
42002;PMS7003;27693;50.506;30.832;2022-09-13T05:35:26;22.60;20.40;14.40
42002;PMS7003;27693;50.506;30.832;2022-09-13T05:36:30;23.90;20.40;15.10
42002;PMS7003;27693;50.506;30.832;2022-09-13T05:37:34;21.30;18.70;13.50
42002;PMS7003;27693;50.506;30.832;2022-09-13T05:38:36;20.80;18.30;14.70
42002;PMS7003;27693;50.506;30.832;2022-09-13T05:39:39;27.30;23.40;16.70
42002;PMS7003;27693;50.506;30.832;2022-09-13T05:40:43;26.20;22.90;16.80
42002;PMS7003;27693;50.506;30.832;2022-09-13T05:41:46;26.91;23.00;16.55
42002;PMS7003;27693;50.506;30.832;2022-09-13T05:42:49;24.90;21.20;14.60
42002;PMS7003;27693;50.506;30.832;2022-09-13T05:43:54;24.30;22.20;14.90
42002;PMS7003;27693;50.506;30.832;2022-09-13T05:44:58;26.20;22.00;14.90
42002;PMS7003;27693;50.506;30.832;2022-09-13T05:46:14;25.00;21.30;15.50
42002;PMS7003;27693;50.506;30.832;2022-09-13T05:47:14;24.50;20.20;15.10
42002;PMS7003;27693;50.506;30.832;2022-09-13T05:48:16;21.60;20.30;13.90
42002;PMS7003;27693;50.506;30.832;2022-09-13T05:49:18;22.80;19.70;14.70
42002;PMS7003;27693;50.506;30.832;2022-09-13T05:50:22;21.00;19.50;14.80
42002;PMS7003;27693;50.506;30.832;2022-09-13T05:51:26;23.70;21.00;14.80
42002;PMS7003;27693;50.506;30.832;2022-09-13T05:52:28;20.70;18.50;13.90
42002;PMS7003;27693;50.506;30.832;2022-09-13T05:53:30;23.89;20.44;13.89
42002;PMS7003;27693;50.506;30.832;2022-09-13T05:54:32;23.40;19.00;14.10
42002;PMS7003;27693;50.506;30.832;2022-09-13T05:55:34;22.20;18.70;13.60
42002;PMS7003;27693;50.506;30.832;2022-09-13T05:56:36;23.70;21.00;14.90
42002;PMS7003;27693;50.506;30.832;2022-09-13T05:57:40;18.60;17.90;13.20
42002;PMS7003;27693;50.506;30.832;2022-09-13T05:58:43;19.22;17.89;13.11
42002;PMS7003;27693;50.506;30.832;2022-09-13T05:59:46;21.10;17.00;13.40
42002;PMS7003;27693;50.506;30.832;2022-09-13T06:00:55;20.10;18.60;14.20
42002;PMS7003;27693;50.506;30.832;2022-09-13T06:01:58;26.80;19.60;15.50
42002;PMS7003;27693;50.506;30.832;2022-09-13T06:03:00;15.90;13.90;8.70
42002;PMS7003;27693;50.506;30.832;2022-09-13T06:04:02;23.30;18.30;12.40
42002;PMS7003;27693;50.506;30.832;2022-09-13T06:05:04;20.10;18.60;13.40
42002;PMS7003;27693;50.506;30.832;2022-09-13T06:06:07;20.60;17.50;13.20
42002;PMS7003;27693;50.506;30.832;2022-09-13T06:07:11;21.10;18.70;12.10
42002;PMS7003;27693;50.506;30.832;2022-09-13T06:08:13;20.30;17.20;13.70
42002;PMS7003;27693;50.506;30.832;2022-09-13T06:09:15;21.60;18.70;14.30
42002;PMS7003;27693;50.506;30.832;2022-09-13T06:10:19;18.90;18.20;13.80
42002;PMS7003;27693;50.506;30.832;2022-09-13T06:11:21;14.90;13.30;10.80
42002;PMS7003;27693;50.506;30.832;2022-09-13T06:12:24;20.80;17.60;13.10
42002;PMS7003;27693;50.506;30.832;2022-09-13T06:13:26;20.50;16.30;13.00
42002;PMS7003;27693;50.506;30.832;2022-09-13T06:14:29;23.09;18.82;13.09
42002;PMS7003;27693;50.506;30.832;2022-09-13T06:15:32;19.18;17.73;13.36
42002;PMS7003;27693;50.506;30.832;2022-09-13T06:16:34;20.36;17.09;12.73
42002;PMS7003;27693;50.506;30.832;2022-09-13T06:17:36;19.60;17.10;12.90
42002;PMS7003;27693;50.506;30.832;2022-09-13T06:18:39;21.10;17.70;13.50
42002;PMS7003;27693;50.506;30.832;2022-09-13T06:19:41;22.60;19.30;13.20
42002;PMS7003;27693;50.506;30.832;2022-09-13T06:20:43;17.67;17.00;11.89
42002;PMS7003;27693;50.506;30.832;2022-09-13T06:21:45;20.56;16.00;11.67
42002;PMS7003;27693;50.506;30.832;2022-09-13T06:22:47;22.11;18.22;12.89
42002;PMS7003;27693;50.506;30.832;2022-09-13T06:23:50;21.90;19.40;13.70
42002;PMS7003;27693;50.506;30.832;2022-09-13T06:24:54;18.60;16.70;12.20
42002;PMS7003;27693;50.506;30.832;2022-09-13T06:26:00;22.60;18.40;14.10
42002;PMS7003;27693;50.506;30.832;2022-09-13T06:27:06;22.20;17.40;13.80
42002;PMS7003;27693;50.506;30.832;2022-09-13T06:28:08;18.33;16.67;12.78
42002;PMS7003;27693;50.506;30.832;2022-09-13T06:29:11;19.90;15.60;10.30
42002;PMS7003;27693;50.506;30.832;2022-09-13T06:30:14;20.60;18.00;12.80
42002;PMS7003;27693;50.506;30.832;2022-09-13T06:31:17;20.50;18.10;12.20
42002;PMS7003;27693;50.506;30.832;2022-09-13T06:32:21;18.80;17.80;14.60
42002;PMS7003;27693;50.506;30.832;2022-09-13T06:33:23;21.00;18.70;13.90
42002;PMS7003;27693;50.506;30.832;2022-09-13T06:34:25;20.44;18.22;14.44
42002;PMS7003;27693;50.506;30.832;2022-09-13T06:35:29;25.10;18.70;13.10
42002;PMS7003;27693;50.506;30.832;2022-09-13T06:36:31;17.40;13.40;10.20
42002;PMS7003;27693;50.506;30.832;2022-09-13T06:37:33;21.11;16.22;11.78
42002;PMS7003;27693;50.506;30.832;2022-09-13T06:38:36;21.20;18.30;15.10
42002;PMS7003;27693;50.506;30.832;2022-09-13T06:39:40;21.60;17.50;13.20
42002;PMS7003;27693;50.506;30.832;2022-09-13T06:40:42;24.20;20.90;14.90
42002;PMS7003;27693;50.506;30.832;2022-09-13T06:41:44;19.30;17.20;13.50
42002;PMS7003;27693;50.506;30.832;2022-09-13T06:42:47;19.50;17.90;14.50
42002;PMS7003;27693;50.506;30.832;2022-09-13T06:43:53;22.55;20.09;15.00
42002;PMS7003;27693;50.506;30.832;2022-09-13T06:44:57;19.40;17.10;12.80
42002;PMS7003;27693;50.506;30.832;2022-09-13T06:46:07;17.22;15.56;11.22
42002;PMS7003;27693;50.506;30.832;2022-09-13T06:47:11;14.10;12.80;8.50
42002;PMS7003;27693;50.506;30.832;2022-09-13T06:48:13;18.60;16.50;12.70
42002;PMS7003;27693;50.506;30.832;2022-09-13T06:49:16;20.00;17.20;12.70
42002;PMS7003;27693;50.506;30.832;2022-09-13T06:50:19;19.27;17.45;12.18
42002;PMS7003;27693;50.506;30.832;2022-09-13T06:51:21;17.80;15.50;11.10
42002;PMS7003;27693;50.506;30.832;2022-09-13T06:52:25;19.10;17.60;12.00
42002;PMS7003;27693;50.506;30.832;2022-09-13T06:53:27;19.00;15.91;12.55